Terminal Aerodrome Forecast
Issued by NWS

Home | Current Version | Previous Version | Text Only | Print | Product List | Glossary Off
Versions: 1 2 3 4 5 6 7 8 9 10 11 12 13 14 15 16 17 18 19 20 21
000 FTUS41 KGYX 240153 AAA TAFMHT TAF AMD KMHT 240153Z 2402/2424 19005KT P6SM BKN007 OVC012 TEMPO 2402/2406 4SM -SHRA BR BKN004 OVC007 FM240600 20004KT P6SM SCT015 BKN040 BKN090 FM240900 25005KT P6SM SCT050 SCT100 FM241500 30010G18KT P6SM BKN250=

USA.gov is the U.S. government's official web portal to all federal, state and local government web resources and services.